Time;durP1;ratioP1;P1;durP2;ratioP2;P2;SDS_P1;SDS_P2;PMS_P1;PMS_P2;Temp;Humidity;BMP_temperature;BMP_pressure;BME280_temperature;BME280_humidity;BME280_pressure;Samples;Min_cycle;Max_cycle;Signal;HPM_P1;HPM_P2
2022/10/03 00:00:44;;;;;;;;;;;;;;;20.00;84.93;96932.61;615122;230;66104;-70
2022/10/03 00:03:32;;;;;;;;;;;;;;;19.99;84.83;96937.14;614330;230;64539;-70
2022/10/03 00:06:17;;;;;;;;;;;;;;;19.99;84.92;96926.48;615408;230;64617;-70
2022/10/03 00:08:52;;;;;;;;;;;;;;;20.00;84.46;96913.94;615466;230;65128;-70
2022/10/03 00:11:37;;;;;;;;;;;;;;;19.99;84.17;96917.68;615217;230;66818;-70
2022/10/03 00:14:06;;;;;;;;;;;;;;;19.99;85.01;96918.47;615407;230;67579;-70
2022/10/03 00:16:42;;;;;;;;;;;;;;;19.98;84.75;96914.22;615374;230;64846;-71
2022/10/03 00:19:29;;;;;;;;;;;;;;;19.99;84.66;96926.48;615417;230;67990;-71
2022/10/03 00:22:04;;;;;;;;;;;;;;;19.99;85.01;96923.81;615418;228;66922;-71
2022/10/03 00:24:49;;;;;;;;;;;;;;;19.99;85.13;96909.67;615203;230;65932;-71
2022/10/03 00:27:18;;;;;;;;;;;;;;;19.99;85.64;96909.67;615452;230;67446;-71
2022/10/03 00:29:50;;;;;;;;;;;;;;;19.99;85.05;96907.02;615417;230;64561;-71
2022/10/03 00:32:23;;;;;;;;;;;;;;;19.97;84.36;96907.30;615131;230;65089;-71
2022/10/03 00:34:52;;;;;;;;;;;;;;;19.99;84.61;96904.34;615440;228;65592;-72
2022/10/03 00:37:27;;;;;;;;;;;;;;;19.99;85.06;96902.47;615424;230;65387;-72
2022/10/03 00:40:12;;;;;;;;;;;;;;;19.99;84.98;96915.02;615387;230;64802;-72
2022/10/03 00:42:58;;;;;;;;;;;;;;;19.98;84.42;96906.22;614613;230;66708;-70
2022/10/03 00:45:43;;;;;;;;;;;;;;;19.99;85.14;96899.01;614003;231;66648;-71
2022/10/03 00:48:28;;;;;;;;;;;;;;;19.98;84.72;96889.42;613990;231;64988;-73
2022/10/03 00:51:00;;;;;;;;;;;;;;;19.97;84.48;96891.29;613914;231;64618;-70
2022/10/03 00:53:29;;;;;;;;;;;;;;;19.98;84.56;96900.88;613774;231;66611;-71
2022/10/03 00:56:14;;;;;;;;;;;;;;;19.98;84.91;96881.41;613601;231;65959;-71
2022/10/03 00:58:43;;;;;;;;;;;;;;;19.98;84.79;96876.08;613952;231;67692;-71
2022/10/03 01:01:25;;;;;;;;;;;;;;;19.98;85.18;96874.20;613947;231;64574;-71
2022/10/03 01:04:10;;;;;;;;;;;;;;;19.97;85.15;96869.95;613850;231;66010;-71
2022/10/03 01:06:41;;;;;;;;;;;;;;;19.98;85.45;96874.20;613985;231;67038;-71
2022/10/03 01:09:28;;;;;;;;;;;;;;;19.96;84.82;96863.79;613769;231;64780;-71
2022/10/03 01:12:12;;;;;;;;;;;;;;;19.96;84.49;96873.66;613923;231;62927;-71
2022/10/03 01:14:54;;;;;;;;;;;;;;;19.97;85.06;96872.62;613797;231;66728;-71
2022/10/03 01:17:23;;;;;;;;;;;;;;;19.97;85.53;96872.62;613779;231;64728;-71
2022/10/03 01:20:01;;;;;;;;;;;;;;;19.97;85.16;96875.28;613926;231;62826;-71
2022/10/03 01:22:30;;;;;;;;;;;;;;;19.97;85.40;96872.62;613938;228;66909;-71
2022/10/03 01:24:59;;;;;;;;;;;;;;;19.97;85.36;96867.28;613996;231;67417;-71
2022/10/03 01:27:29;;;;;;;;;;;;;;;19.96;85.06;96869.13;613702;231;62918;-71
2022/10/03 01:30:22;;;;;;;;;;;;;;;19.96;84.76;96871.80;613955;231;66579;-71
2022/10/03 01:32:54;;;;;;;;;;;;;;;19.97;84.89;96872.62;613935;231;65445;-70
2022/10/03 01:35:39;;;;;;;;;;;;;;;19.96;85.06;96865.66;613833;231;63054;-71
2022/10/03 01:38:11;;;;;;;;;;;;;;;19.97;84.62;96864.62;613944;231;67038;-70
2022/10/03 01:40:52;;;;;;;;;;;;;;;19.97;84.78;96875.28;613774;231;66646;-71
2022/10/03 01:43:21;;;;;;;;;;;;;;;19.96;84.29;96871.80;613717;228;66102;-71
2022/10/03 01:45:58;;;;;;;;;;;;;;;19.97;84.64;96875.28;613923;231;64523;-70
2022/10/03 01:48:27;;;;;;;;;;;;;;;19.97;85.82;96861.95;606645;231;66577;-71
2022/10/03 01:51:06;;;;;;;;;;;;;;;19.96;84.79;96868.33;613926;231;62748;-71
2022/10/03 01:53:35;;;;;;;;;;;;;;;19.97;85.11;96867.28;613615;228;66779;-71
2022/10/03 01:56:04;;;;;;;;;;;;;;;19.96;85.17;96873.66;613042;231;66824;-71
2022/10/03 01:58:42;;;;;;;;;;;;;;;19.96;85.29;96879.00;613478;231;66029;-71
2022/10/03 02:01:17;;;;;;;;;;;;;;;19.96;84.82;96873.66;613757;231;66750;-71
2022/10/03 02:04:01;;;;;;;;;;;;;;;19.96;84.71;96873.66;613799;228;66622;-71
2022/10/03 02:06:48;;;;;;;;;;;;;;;19.96;85.00;96873.66;604195;231;63664;-71
2022/10/03 02:09:17;;;;;;;;;;;;;;;19.97;85.24;96883.29;613934;231;66757;-71
2022/10/03 02:11:46;;;;;;;;;;;;;;;19.96;84.94;96873.66;613728;231;64594;-71
2022/10/03 02:14:22;;;;;;;;;;;;;;;19.95;85.01;96872.08;609497;231;65151;-71
2022/10/03 02:16:57;;;;;;;;;;;;;;;19.96;84.96;96865.66;611350;231;67626;-71
2022/10/03 02:19:29;;;;;;;;;;;;;;;19.95;85.00;96872.08;613991;228;66223;-71
2022/10/03 02:21:59;;;;;;;;;;;;;;;19.95;84.79;96861.41;613957;231;64881;-71
2022/10/03 02:24:38;;;;;;;;;;;;;;;19.96;85.11;96861.13;613931;231;66811;-71
2022/10/03 02:27:16;;;;;;;;;;;;;;;19.96;85.32;96857.66;613919;231;68845;-72
2022/10/03 02:29:52;;;;;;;;;;;;;;;19.95;84.68;96856.08;614010;231;65153;-71
2022/10/03 02:32:26;;;;;;;;;;;;;;;19.96;84.87;96860.33;613965;231;66543;-71
2022/10/03 02:35:10;;;;;;;;;;;;;;;19.94;84.14;96849.95;613504;231;66375;-71
2022/10/03 02:37:39;;;;;;;;;;;;;;;19.94;84.58;96847.28;613953;231;64041;-71
2022/10/03 02:40:27;;;;;;;;;;;;;;;19.94;84.43;96846.45;613957;231;66454;-71
2022/10/03 02:42:56;;;;;;;;;;;;;;;19.94;85.10;96849.12;613875;231;66829;-71
2022/10/03 02:45:26;;;;;;;;;;;;;;;19.95;85.28;96848.07;613924;231;65163;-71
2022/10/03 02:48:04;;;;;;;;;;;;;;;19.94;84.65;96841.95;613501;231;64289;-71
2022/10/03 02:50:34;;;;;;;;;;;;;;;19.93;84.97;96848.33;613937;231;66660;-71
2022/10/03 02:53:03;;;;;;;;;;;;;;;19.96;84.90;96849.66;604598;231;64937;-70
2022/10/03 02:55:31;;;;;;;;;;;;;;;19.94;85.28;96841.95;613492;231;65099;-71
2022/10/03 02:58:01;;;;;;;;;;;;;;;19.94;85.40;96827.78;613642;231;65860;-71
2022/10/03 03:00:42;;;;;;;;;;;;;;;19.93;85.13;96832.33;613929;231;64844;-71
2022/10/03 03:03:17;;;;;;;;;;;;;;;19.94;84.90;96833.94;613966;231;66790;-71
2022/10/03 03:06:03;;;;;;;;;;;;;;;19.94;85.04;96817.12;606409;231;66658;-71
2022/10/03 03:08:51;;;;;;;;;;;;;;;19.94;84.77;96830.45;613925;231;66017;-71
2022/10/03 03:11:26;;;;;;;;;;;;;;;19.95;85.17;96824.06;613966;231;66751;-71
2022/10/03 03:14:13;;;;;;;;;;;;;;;19.94;85.10;96817.12;613639;231;66635;-71
2022/10/03 03:16:43;;;;;;;;;;;;;;;19.93;84.94;96818.98;613868;231;65109;-70
2022/10/03 03:19:30;;;;;;;;;;;;;;;19.94;84.66;96812.61;604505;231;66782;-71
2022/10/03 03:22:02;;;;;;;;;;;;;;;19.93;84.84;96808.32;613935;231;66649;-70
2022/10/03 03:24:31;;;;;;;;;;;;;;;19.93;84.92;96810.98;613970;231;63957;-71
2022/10/03 03:27:17;;;;;;;;;;;;;;;19.93;84.77;96810.20;613868;231;66732;-71
2022/10/03 03:29:46;;;;;;;;;;;;;;;19.94;84.59;96809.11;613916;231;64571;-71
2022/10/03 03:32:15;;;;;;;;;;;;;;;19.93;84.94;96807.52;613949;231;63004;-71
2022/10/03 03:34:44;;;;;;;;;;;;;;;19.93;84.65;96810.20;612999;228;64689;-71
2022/10/03 03:37:13;;;;;;;;;;;;;;;19.92;84.81;96814.73;613729;231;67477;-71
2022/10/03 03:39:48;;;;;;;;;;;;;;;19.93;84.85;96810.98;613816;228;62892;-71
2022/10/03 03:42:18;;;;;;;;;;;;;;;19.92;84.41;96804.06;613675;231;64935;-70
2022/10/03 03:45:02;;;;;;;;;;;;;;;19.93;84.53;96802.19;613909;231;65118;-71
2022/10/03 03:47:31;;;;;;;;;;;;;;;19.93;84.90;96796.86;613755;231;66151;-71
2022/10/03 03:50:03;;;;;;;;;;;;;;;19.93;84.76;96788.86;613770;231;66661;-71
2022/10/03 03:52:39;;;;;;;;;;;;;;;19.93;85.32;96783.52;613903;231;67849;-71
2022/10/03 03:55:08;;;;;;;;;;;;;;;19.93;85.52;96780.86;613719;231;63025;-71
2022/10/03 03:57:55;;;;;;;;;;;;;;;19.92;85.21;96779.27;604563;231;64922;-71
2022/10/03 04:00:41;;;;;;;;;;;;;;;19.92;84.82;96782.73;613907;231;64863;-71
2022/10/03 04:03:13;;;;;;;;;;;;;;;19.93;85.01;96786.19;613943;231;65447;-71
2022/10/03 04:05:49;;;;;;;;;;;;;;;19.92;84.60;96787.27;613762;231;66757;-72
2022/10/03 04:08:21;;;;;;;;;;;;;;;19.92;84.57;96793.40;606531;231;67803;-72
2022/10/03 04:10:56;;;;;;;;;;;;;;;19.92;84.66;96803.27;613890;231;65351;-71
2022/10/03 04:13:44;;;;;;;;;;;;;;;19.91;84.52;96802.45;613611;231;65109;-71
2022/10/03 04:18:56;;;;;;;;;;;;;;;19.93;84.82;96818.20;613884;231;67090;-73
2022/10/03 04:18:59;;;;;;;;;;;;;;;19.92;84.59;96804.06;613107;231;65180;-71
2022/10/03 04:21:37;;;;;;;;;;;;;;;19.92;84.70;96813.94;613348;231;67050;-72
2022/10/03 04:24:20;;;;;;;;;;;;;;;19.92;85.40;96809.40;613853;229;66998;-72
2022/10/03 04:26:50;;;;;;;;;;;;;;;19.92;85.14;96822.73;613828;231;65058;-72
2022/10/03 04:29:20;;;;;;;;;;;;;;;19.91;84.77;96825.66;609633;231;64945;-72
2022/10/03 04:32:08;;;;;;;;;;;;;;;19.92;84.60;96816.61;613955;229;64824;-72
2022/10/03 04:34:39;;;;;;;;;;;;;;;19.91;84.18;96818.45;613767;231;64942;-72
2022/10/03 04:37:09;;;;;;;;;;;;;;;19.91;84.32;96813.12;613654;231;67121;-71
2022/10/03 04:39:56;;;;;;;;;;;;;;;19.91;83.52;96812.33;613947;231;66875;-71
2022/10/03 04:42:25;;;;;;;;;;;;;;;19.92;83.89;96809.40;614508;230;64050;-71
2022/10/03 04:44:55;;;;;;;;;;;;;;;19.92;84.70;96813.94;615103;230;66875;-71
2022/10/03 04:47:30;;;;;;;;;;;;;;;19.92;84.83;96813.94;615204;230;66869;-71
2022/10/03 04:50:07;;;;;;;;;;;;;;;19.91;84.76;96802.45;615345;228;62714;-71
2022/10/03 04:52:38;;;;;;;;;;;;;;;19.92;84.63;96813.94;615412;230;67124;-71
2022/10/03 04:55:09;;;;;;;;;;;;;;;19.91;85.00;96805.11;615367;229;64581;-71
2022/10/03 04:57:38;;;;;;;;;;;;;;;19.92;84.82;96813.94;614913;228;62800;-71
2022/10/03 05:00:17;;;;;;;;;;;;;;;19.91;84.54;96814.98;615271;230;64926;-71
2022/10/03 05:02:47;;;;;;;;;;;;;;;19.91;84.61;96806.98;615193;230;68149;-71
2022/10/03 05:05:25;;;;;;;;;;;;;;;19.91;84.69;96812.33;614998;230;65270;-71
2022/10/03 05:08:09;;;;;;;;;;;;;;;19.92;84.85;96819.27;615347;229;67383;-71
2022/10/03 05:10:38;;;;;;;;;;;;;;;19.90;85.03;96816.86;615369;230;66881;-71
2022/10/03 05:13:10;;;;;;;;;;;;;;;19.91;84.85;96829.12;615043;230;66083;-72
2022/10/03 05:15:49;;;;;;;;;;;;;;;19.91;85.26;96826.45;603692;230;67251;-71
2022/10/03 05:18:18;;;;;;;;;;;;;;;19.90;85.15;96826.73;615368;230;66983;-71
2022/10/03 05:20:50;;;;;;;;;;;;;;;19.90;84.57;96816.86;615226;230;66042;-72
2022/10/03 05:23:31;;;;;;;;;;;;;;;19.90;84.71;96824.06;615427;230;67702;-73
2022/10/03 05:26:03;;;;;;;;;;;;;;;19.90;84.26;96826.73;602287;230;66942;-70
2022/10/03 05:28:33;;;;;;;;;;;;;;;19.91;84.35;96828.33;615355;230;63793;-71
2022/10/03 05:31:05;;;;;;;;;;;;;;;19.91;84.21;96814.98;615337;229;67249;-72
2022/10/03 05:33:51;;;;;;;;;;;;;;;19.91;84.03;96817.66;614909;230;66893;-73
2022/10/03 05:36:26;;;;;;;;;;;;;;;19.91;84.11;96812.33;615300;230;65111;-71
2022/10/03 05:39:01;;;;;;;;;;;;;;;19.90;84.63;96810.73;615385;230;68028;-72
2022/10/03 05:41:35;;;;;;;;;;;;;;;19.90;84.51;96811.53;614301;230;66891;-72
2022/10/03 05:44:09;;;;;;;;;;;;;;;19.90;84.08;96814.20;615270;230;65061;-68
2022/10/03 05:46:42;;;;;;;;;;;;;;;19.90;84.30;96800.86;615340;230;67934;-73
2022/10/03 05:49:27;;;;;;;;;;;;;;;19.90;83.12;96811.53;614723;230;64837;-69
2022/10/03 05:52:00;;;;;;;;;;;;;;;19.91;85.28;96817.66;615331;230;63008;-74
2022/10/03 05:54:44;;;;;;;;;;;;;;;19.89;84.99;96815.27;614378;230;67196;-70
2022/10/03 05:57:20;;;;;;;;;;;;;;;19.89;85.08;96825.94;615164;230;67691;-71
2022/10/03 06:00:07;;;;;;;;;;;;;;;19.88;84.91;96821.66;615066;230;63032;-69
2022/10/03 06:02:43;;;;;;;;;;;;;;;19.88;84.69;96826.98;615357;230;64833;-67
2022/10/03 06:05:28;;;;;;;;;;;;;;;19.87;78.68;96822.73;615308;230;69333;-65
2022/10/03 06:08:13;;;;;;;;;;;;;;;19.87;78.90;96821.94;615380;230;65109;-68
2022/10/03 06:10:43;;;;;;;;;;;;;;;19.90;81.34;96829.41;615145;230;67345;-69
2022/10/03 06:13:15;;;;;;;;;;;;;;;19.88;82.94;96823.53;615215;230;66645;-71
2022/10/03 06:15:44;;;;;;;;;;;;;;;19.86;81.16;96825.66;614497;230;62859;-71
2022/10/03 06:18:13;;;;;;;;;;;;;;;19.87;82.69;96827.28;623902;227;65780;-71
2022/10/03 06:20:51;;;;;;;;;;;;;;;19.87;83.75;96822.73;624917;227;65210;-72
2022/10/03 06:23:27;;;;;;;;;;;;;;;19.88;84.23;96818.20;625120;227;63661;-72
2022/10/03 06:26:14;;;;;;;;;;;;;;;19.88;84.36;96818.20;625117;227;64843;-71
2022/10/03 06:28:59;;;;;;;;;;;;;;;19.88;84.74;96812.86;625134;227;66881;-71
2022/10/03 06:31:50;;;;;;;;;;;;;;;19.88;84.57;96826.20;625097;227;65091;-72
2022/10/03 06:34:34;;;;;;;;;;;;;;;19.88;84.52;96828.86;625107;225;64976;-71
2022/10/03 06:37:09;;;;;;;;;;;;;;;19.89;84.59;96835.81;625167;227;66817;-74
2022/10/03 06:39:57;;;;;;;;;;;;;;;19.88;84.49;96832.33;624608;226;63940;-68
2022/10/03 06:42:26;;;;;;;;;;;;;;;19.88;84.73;96831.53;624599;227;64933;-73
2022/10/03 06:44:56;;;;;;;;;;;;;;;19.87;83.87;96835.27;623522;226;64745;-72
2022/10/03 06:47:37;;;;;;;;;;;;;;;19.88;84.38;96839.53;623618;227;65150;-74
2022/10/03 06:50:20;;;;;;;;;;;;;;;19.88;84.31;96845.66;618815;227;67973;-65
2022/10/03 06:53:03;;;;;;;;;;;;;;;19.90;84.37;96856.87;623201;226;66689;-65
2022/10/03 06:55:45;;;;;;;;;;;;;;;19.87;78.53;96864.61;623791;227;65176;-72
2022/10/03 06:58:19;;;;;;;;;;;;;;;19.86;77.09;96873.66;623722;226;66876;-66
2022/10/03 07:00:48;;;;;;;;;;;;;;;19.89;80.75;96873.95;623815;227;65413;-66
2022/10/03 07:03:27;;;;;;;;;;;;;;;19.90;81.32;96882.74;623824;227;65105;-68
2022/10/03 07:06:05;;;;;;;;;;;;;;;19.90;82.26;96885.41;623712;227;65806;-69
2022/10/03 07:08:37;;;;;;;;;;;;;;;19.90;82.61;96886.20;623729;226;66797;-66
2022/10/03 07:11:08;;;;;;;;;;;;;;;19.90;83.12;96891.53;623831;227;63645;-69
2022/10/03 07:13:49;;;;;;;;;;;;;;;19.89;80.33;96894.48;623483;226;67057;-68
2022/10/03 07:16:26;;;;;;;;;;;;;;;19.90;80.87;96893.41;623603;226;64807;-69
2022/10/03 07:19:00;;;;;;;;;;;;;;;19.91;82.87;96893.13;623448;226;62998;-68
2022/10/03 07:21:35;;;;;;;;;;;;;;;19.90;80.12;96896.08;623778;227;67559;-70
2022/10/03 07:24:10;;;;;;;;;;;;;;;19.92;82.88;96893.95;620079;227;67804;-70
2022/10/03 07:26:48;;;;;;;;;;;;;;;19.91;83.37;96884.33;623717;227;65102;-67
2022/10/03 07:29:24;;;;;;;;;;;;;;;19.89;79.81;96895.28;623761;227;68073;-71
2022/10/03 07:32:09;;;;;;;;;;;;;;;19.91;80.30;96895.80;623807;227;64429;-70
2022/10/03 07:34:55;;;;;;;;;;;;;;;19.93;82.49;96898.21;623791;227;65124;-70
2022/10/03 07:40:31;;;;;;;;;;;;;;;19.92;84.37;96902.75;623821;227;67319;-73
2022/10/03 07:43:07;;;;;;;;;;;;;;;19.91;84.27;96913.67;623569;227;63656;-69
2022/10/03 07:45:39;;;;;;;;;;;;;;;19.91;83.98;96919.80;623361;226;66992;-67
2022/10/03 07:48:12;;;;;;;;;;;;;;;19.91;83.75;96927.00;623504;226;64820;-67
2022/10/03 07:50:59;;;;;;;;;;;;;;;19.91;83.67;96927.00;623547;226;62984;-69
2022/10/03 07:53:45;;;;;;;;;;;;;;;19.89;78.30;96921.16;623630;226;66864;-69
2022/10/03 07:56:26;;;;;;;;;;;;;;;19.92;81.33;96931.29;618581;227;67764;-70
2022/10/03 07:58:56;;;;;;;;;;;;;;;19.92;82.59;96936.63;616627;230;65127;-69
2022/10/03 08:01:27;;;;;;;;;;;;;;;19.92;82.71;96944.63;616596;230;66702;-69
2022/10/03 08:04:13;;;;;;;;;;;;;;;19.91;82.62;96951.80;608536;230;67804;-69
2022/10/03 08:06:58;;;;;;;;;;;;;;;19.89;81.93;96945.95;616598;230;66232;-68
2022/10/03 08:09:40;;;;;;;;;;;;;;;19.90;81.77;96952.09;616627;230;67513;-69
2022/10/03 08:12:27;;;;;;;;;;;;;;;19.89;81.87;96953.95;616338;230;65641;-72
2022/10/03 08:14:57;;;;;;;;;;;;;;;19.90;82.07;96958.21;616578;230;65083;-70
2022/10/03 08:17:43;;;;;;;;;;;;;;;19.89;82.11;96955.83;616576;230;64815;-69
2022/10/03 08:20:24;;;;;;;;;;;;;;;19.89;81.52;96959.29;616619;230;66880;-71
2022/10/03 08:23:00;;;;;;;;;;;;;;;19.90;81.77;96952.09;616550;230;65218;-71
2022/10/03 08:25:38;;;;;;;;;;;;;;;19.91;81.15;96956.34;616106;230;67282;-71
2022/10/03 08:28:09;;;;;;;;;;;;;;;19.90;80.73;96960.09;602283;235;64955;-71
2022/10/03 08:30:56;;;;;;;;;;;;;;;19.91;81.69;96967.80;616304;230;65115;-70
2022/10/03 08:33:42;;;;;;;;;;;;;;;19.91;81.37;96972.34;615843;230;65876;-72
2022/10/03 08:36:17;;;;;;;;;;;;;;;19.90;78.72;96962.75;616512;230;64834;-74
2022/10/03 08:39:03;;;;;;;;;;;;;;;19.92;77.45;96964.09;616609;230;65987;-75
2022/10/03 08:41:48;;;;;;;;;;;;;;;19.93;80.29;96964.89;615622;228;68102;-72
2022/10/03 08:44:24;;;;;;;;;;;;;;;19.94;81.43;96967.30;616033;230;67770;-70
2022/10/03 08:47:01;;;;;;;;;;;;;;;19.93;81.66;96955.02;615959;230;66257;-72
2022/10/03 08:49:29;;;;;;;;;;;;;;;19.94;80.79;96966.48;615986;230;67108;-70
2022/10/03 08:52:20;;;;;;;;;;;;;;;19.93;80.46;96954.22;615569;230;66908;-70
2022/10/03 08:54:45;;;;;;;;;;;;;;;19.94;80.47;96955.81;615799;230;65139;-69
2022/10/03 08:57:33;;;;;;;;;;;;;;;19.94;80.36;96950.47;615776;230;64741;-70
2022/10/03 09:00:20;;;;;;;;;;;;;;;19.94;80.30;96945.97;615983;230;67316;-74
2022/10/03 09:02:49;;;;;;;;;;;;;;;19.95;82.07;96930.76;616069;230;65117;-71
2022/10/03 09:05:18;;;;;;;;;;;;;;;19.93;82.57;96932.88;615709;230;67091;-69
2022/10/03 09:07:56;;;;;;;;;;;;;;;19.92;82.21;96932.09;615515;230;67810;-69
2022/10/03 09:10:37;;;;;;;;;;;;;;;19.92;82.36;96933.95;616019;230;65112;-71
2022/10/03 09:13:13;;;;;;;;;;;;;;;19.91;82.74;96913.67;610265;230;67122;-70
2022/10/03 09:15:49;;;;;;;;;;;;;;;19.90;83.21;96918.20;615695;230;64609;-70
2022/10/03 09:18:30;;;;;;;;;;;;;;;19.91;83.28;96921.67;616093;230;65099;-70
2022/10/03 09:21:16;;;;;;;;;;;;;;;19.91;83.34;96921.67;615676;230;66788;-72
2022/10/03 09:24:00;;;;;;;;;;;;;;;19.90;83.01;96917.41;615955;230;66897;-72
2022/10/03 09:26:46;;;;;;;;;;;;;;;19.91;82.73;96927.00;616018;230;63032;-71
2022/10/03 09:29:32;;;;;;;;;;;;;;;19.92;82.65;96925.95;615966;230;65135;-73
2022/10/03 09:32:07;;;;;;;;;;;;;;;19.90;82.02;96923.55;616010;230;66850;-73
2022/10/03 09:34:39;;;;;;;;;;;;;;;19.92;82.41;96933.95;615440;230;65197;-72
2022/10/03 09:37:11;;;;;;;;;;;;;;;19.91;81.97;96935.01;615986;230;67102;-74
2022/10/03 09:39:41;;;;;;;;;;;;;;;19.92;80.95;96941.96;616021;230;67785;-72
2022/10/03 09:42:13;;;;;;;;;;;;;;;19.93;80.82;96943.55;615979;230;66004;-72
2022/10/03 09:44:45;;;;;;;;;;;;;;;19.93;81.53;96939.01;615963;230;67089;-72
2022/10/03 09:47:30;;;;;;;;;;;;;;;19.94;81.47;96943.30;616048;230;67824;-71
2022/10/03 09:50:21;;;;;;;;;;;;;;;19.93;81.49;96941.68;615919;230;64015;-71
2022/10/03 09:53:01;;;;;;;;;;;;;;;19.93;80.93;96944.34;615984;230;66996;-71
2022/10/03 09:55:44;;;;;;;;;;;;;;;19.94;80.96;96947.80;615903;230;64790;-71
2022/10/03 09:58:30;;;;;;;;;;;;;;;19.93;80.98;96936.34;615932;230;66268;-70
2022/10/03 10:01:06;;;;;;;;;;;;;;;19.94;80.66;96945.97;616064;230;64742;-71
2022/10/03 10:03:52;;;;;;;;;;;;;;;19.96;81.36;96948.35;616057;230;64790;-72
2022/10/03 10:06:38;;;;;;;;;;;;;;;19.93;80.72;96932.88;616015;230;65070;-71
2022/10/03 10:09:16;;;;;;;;;;;;;;;19.97;78.31;96939.30;615981;230;67237;-71
2022/10/03 10:11:45;;;;;;;;;;;;;;;19.99;79.61;96926.48;615510;230;67563;-69
2022/10/03 10:14:20;;;;;;;;;;;;;;;20.01;79.17;96935.02;616014;230;62991;-70
2022/10/03 10:16:50;;;;;;;;;;;;;;;20.03;79.39;96930.23;615869;230;67185;-71
2022/10/03 10:19:35;;;;;;;;;;;;;;;20.04;78.22;96931.81;615033;230;65302;-70
2022/10/03 10:22:14;;;;;;;;;;;;;;;20.06;77.92;96927.02;616004;230;65181;-71
2022/10/03 10:25:01;;;;;;;;;;;;;;;20.09;78.12;96917.69;615952;230;44435;-70
2022/10/03 10:27:46;;;;;;;;;;;;;;;20.10;77.60;96909.41;615976;230;64920;-72
2022/10/03 10:30:16;;;;;;;;;;;;;;;20.12;77.33;96915.27;624445;227;63003;-69
2022/10/03 10:32:45;;;;;;;;;;;;;;;20.15;76.98;96901.40;624868;227;64373;-73
2022/10/03 10:35:23;;;;;;;;;;;;;;;20.19;77.23;96915.02;624759;227;67232;-72
2022/10/03 10:38:08;;;;;;;;;;;;;;;20.21;76.29;96910.20;624073;227;66184;-70
2022/10/03 10:40:38;;;;;;;;;;;;;;;20.23;75.98;96910.73;624710;227;64611;-72
2022/10/03 10:43:23;;;;;;;;;;;;;;;20.25;75.51;96899.81;624062;227;66897;-74
2022/10/03 10:45:58;;;;;;;;;;;;;;;20.26;75.34;96899.52;624005;227;64977;-68
2022/10/03 10:48:43;;;;;;;;;;;;;;;20.29;75.46;96908.86;612455;227;67269;-70
2022/10/03 10:51:12;;;;;;;;;;;;;;;20.31;75.45;96912.07;624051;227;67258;-69
2022/10/03 10:53:57;;;;;;;;;;;;;;;20.30;75.15;96905.94;624002;227;65214;-68
2022/10/03 10:56:45;;;;;;;;;;;;;;;20.32;74.96;96900.31;624068;227;64859;-67
2022/10/03 10:59:17;;;;;;;;;;;;;;;20.33;74.74;96907.27;623258;227;64808;-69
2022/10/03 11:01:46;;;;;;;;;;;;;;;20.33;74.49;96905.40;624056;227;62899;-69
2022/10/03 11:04:17;;;;;;;;;;;;;;;20.33;74.71;96897.39;623737;227;64516;-69
2022/10/03 11:07:04;;;;;;;;;;;;;;;20.35;74.87;96907.78;588210;231;48488;-69
2022/10/03 11:09:50;;;;;;;;;;;;;;;20.35;75.08;96908.61;582771;242;65116;-68
2022/10/03 11:12:20;;;;;;;;;;;;;;;20.35;75.38;96907.78;594398;236;66701;-69
2022/10/03 11:15:05;;;;;;;;;;;;;;;20.35;76.21;96913.12;593566;239;66740;-70
2022/10/03 11:17:44;;;;;;;;;;;;;;;20.34;76.12;96903.52;593606;239;62929;-68
2022/10/03 11:20:17;;;;;;;;;;;;;;;20.35;75.98;96899.77;595645;237;66657;-72
2022/10/03 11:23:03;;;;;;;;;;;;;;;20.36;75.61;96912.07;596490;237;64579;-68
2022/10/03 11:25:39;;;;;;;;;;;;;;;20.35;75.63;96903.27;595680;236;63665;-69
2022/10/03 11:28:08;;;;;;;;;;;;;;;20.37;75.88;96894.98;594913;238;64647;-68
2022/10/03 11:30:37;;;;;;;;;;;;;;;20.37;76.45;96889.64;595562;238;64549;-72
2022/10/03 11:33:09;;;;;;;;;;;;;;;20.35;74.03;96891.77;595071;237;63166;-69
2022/10/03 11:35:57;;;;;;;;;;;;;;;20.36;75.03;96888.05;595541;238;68049;-74
2022/10/03 11:38:29;;;;;;;;;;;;;;;20.35;75.13;96891.77;595529;238;66075;-70
2022/10/03 11:41:04;;;;;;;;;;;;;;;20.34;75.01;96890.97;595598;238;64575;-72
2022/10/03 11:43:49;;;;;;;;;;;;;;;20.33;75.22;96888.59;595262;238;67195;-70
2022/10/03 11:46:21;;;;;;;;;;;;;;;20.33;76.06;96881.38;595530;238;65697;-71
2022/10/03 11:48:54;;;;;;;;;;;;;;;20.31;74.88;96880.84;595521;238;65607;-75
2022/10/03 11:51:23;;;;;;;;;;;;;;;20.32;75.24;96878.97;595114;238;65717;-72
2022/10/03 11:56:35;;;;;;;;;;;;;;;20.30;74.49;96873.12;596724;237;64717;-67
2022/10/03 11:59:07;;;;;;;;;;;;;;;20.30;74.47;96865.91;595879;238;64559;-69
2022/10/03 12:01:36;;;;;;;;;;;;;;;20.30;74.90;96849.11;595891;238;65672;-74
2022/10/03 12:04:11;;;;;;;;;;;;;;;20.30;74.35;96851.77;595874;238;63746;-70
2022/10/03 12:09:46;;;;;;;;;;;;;;;20.30;74.76;96851.77;595928;238;66841;-70
2022/10/03 12:12:18;;;;;;;;;;;;;;;20.30;74.27;96863.23;595862;238;65159;-71
2022/10/03 12:14:48;;;;;;;;;;;;;;;20.26;73.83;96866.70;595921;238;68087;-68
2022/10/03 12:17:17;;;;;;;;;;;;;;;20.28;74.57;96860.03;595940;238;65793;-67
2022/10/03 12:20:03;;;;;;;;;;;;;;;20.32;74.45;96862.95;595797;238;62790;-68
2022/10/03 12:22:40;;;;;;;;;;;;;;;20.29;73.94;96866.16;595931;238;67113;-74
2022/10/03 12:25:18;;;;;;;;;;;;;;;20.28;74.32;96856.57;595692;237;66976;-71
2022/10/03 12:27:56;;;;;;;;;;;;;;;20.28;73.48;96856.57;595795;237;62893;-73
2022/10/03 12:30:24;;;;;;;;;;;;;;;20.28;74.04;96859.23;595900;238;64986;-72
2022/10/03 12:32:59;;;;;;;;;;;;;;;20.28;74.10;96859.23;595926;238;64859;-72
2022/10/03 12:35:31;;;;;;;;;;;;;;;20.28;74.27;96856.57;595601;237;65321;-72
2022/10/03 12:38:03;;;;;;;;;;;;;;;20.29;74.34;96858.95;595842;238;64933;-74
2022/10/03 12:40:36;;;;;;;;;;;;;;;20.29;74.38;96852.82;595867;238;67832;-73
2022/10/03 12:43:05;;;;;;;;;;;;;;;20.30;74.24;96865.11;595624;237;64899;-72
2022/10/03 12:45:44;;;;;;;;;;;;;;;20.29;74.32;96866.96;595880;238;64868;-71
2022/10/03 12:48:30;;;;;;;;;;;;;;;20.31;74.39;96858.70;595857;237;66690;-71
2022/10/03 12:51:03;;;;;;;;;;;;;;;20.30;74.52;96862.45;595972;238;65063;-71
2022/10/03 12:53:34;;;;;;;;;;;;;;;20.30;74.36;96851.77;595879;235;64967;-71
2022/10/03 12:56:12;;;;;;;;;;;;;;;20.30;75.11;96854.44;603716;234;65377;-71
2022/10/03 12:58:47;;;;;;;;;;;;;;;20.30;75.07;96867.78;605758;234;65340;-71
2022/10/03 13:01:23;;;;;;;;;;;;;;;20.30;74.81;96857.11;605750;234;67990;-73
2022/10/03 13:03:52;;;;;;;;;;;;;;;20.30;74.49;96857.11;605648;234;66929;-71
2022/10/03 13:06:27;;;;;;;;;;;;;;;20.30;75.02;96855.23;605786;234;63660;-76
2022/10/03 13:09:09;;;;;;;;;;;;;;;20.30;74.84;96849.11;605732;234;67331;-73
2022/10/03 13:11:38;;;;;;;;;;;;;;;20.31;74.39;96848.02;605692;234;67177;-72
2022/10/03 13:14:17;;;;;;;;;;;;;;;20.30;74.34;96846.44;604438;234;65105;-69
2022/10/03 13:16:47;;;;;;;;;;;;;;;20.30;74.00;96843.77;605709;234;64547;-71
2022/10/03 13:19:16;;;;;;;;;;;;;;;20.30;73.77;96843.77;604805;234;64833;-72
2022/10/03 13:21:46;;;;;;;;;;;;;;;20.31;73.97;96837.34;605759;234;65165;-71
2022/10/03 13:24:30;;;;;;;;;;;;;;;20.30;73.83;96846.44;605756;234;68231;-73
2022/10/03 13:26:58;;;;;;;;;;;;;;;20.31;74.02;96832.80;605718;234;64980;-73
2022/10/03 13:29:31;;;;;;;;;;;;;;;20.31;73.88;96842.69;605456;234;62816;-74
2022/10/03 13:32:04;;;;;;;;;;;;;;;20.31;73.82;96834.68;605647;234;64691;-71
2022/10/03 13:34:33;;;;;;;;;;;;;;;20.31;73.84;96843.48;605779;234;64875;-72
2022/10/03 13:37:04;;;;;;;;;;;;;;;20.31;74.72;96843.48;605828;234;62767;-72
2022/10/03 13:39:39;;;;;;;;;;;;;;;20.30;74.16;96836.55;604636;234;67038;-73
2022/10/03 13:42:09;;;;;;;;;;;;;;;20.31;74.91;96842.69;605519;234;43565;-72
2022/10/03 13:44:47;;;;;;;;;;;;;;;20.30;74.81;96849.90;605744;234;62953;-73